Time;durP1;ratioP1;P1;durP2;ratioP2;P2;SDS_P1;SDS_P2;PMS_P1;PMS_P2;Temp;Humidity;BMP_temperature;BMP_pressure;BME280_temperature;BME280_humidity;BME280_pressure;Samples;Min_cycle;Max_cycle;Signal;HPM_P1;HPM_P2
2022/06/21 00:01:00;;;;;;;5.73;3.97;;;13.00;1.00;;;;;;6332091;27;20724;-56
2022/06/21 00:04:03;;;;;;;3.77;3.57;;;12.90;1.00;;;;;;6337893;27;20229;-58
2022/06/21 00:07:07;;;;;;;7.40;4.07;;;12.90;1.00;;;;;;6331034;27;20224;-56
2022/06/21 00:10:16;;;;;;;4.33;4.03;;;12.90;1.00;;;;;;6329523;28;20619;-55
2022/06/21 00:13:22;;;;;;;4.73;4.33;;;12.90;1.00;;;;;;6332321;28;20327;-57
2022/06/21 00:16:27;;;;;;;4.83;4.50;;;12.90;1.00;;;;;;6328227;28;20710;-55
2022/06/21 00:19:31;;;;;;;5.13;4.33;;;12.90;1.00;;;;;;6305798;28;20339;-54
2022/06/21 00:22:34;;;;;;;4.73;4.40;;;12.80;1.00;;;;;;6305891;28;21141;-56
2022/06/21 00:25:39;;;;;;;4.23;3.93;;;12.80;1.00;;;;;;6306248;28;20232;-55
2022/06/21 00:28:42;;;;;;;4.53;4.23;;;12.90;1.00;;;;;;6305697;28;20347;-56
2022/06/21 00:31:48;;;;;;;5.63;4.90;;;12.90;1.00;;;;;;6307210;28;20822;-55
2022/06/21 00:34:51;;;;;;;5.00;4.63;;;12.80;1.00;;;;;;6329257;28;20224;-56
2022/06/21 00:37:55;;;;;;;5.20;4.80;;;12.80;1.00;;;;;;6302318;28;20634;-56
2022/06/21 00:41:02;;;;;;;5.27;4.83;;;12.90;1.00;;;;;;6283170;28;20232;-54
2022/06/21 00:44:10;;;;;;;4.90;4.60;;;12.80;1.00;;;;;;6307000;28;20228;-56
2022/06/21 00:47:16;;;;;;;5.23;4.80;;;12.90;1.00;;;;;;6305877;28;20703;-56
2022/06/21 00:50:24;;;;;;;4.87;4.57;;;12.80;1.00;;;;;;6311510;28;20255;-55
2022/06/21 00:53:32;;;;;;;9.37;4.37;;;12.80;1.00;;;;;;6309809;28;20377;-56
2022/06/21 00:56:41;;;;;;;7.97;5.17;;;12.80;1.00;;;;;;6311408;28;20769;-56
2022/06/21 00:59:46;;;;;;;5.60;5.10;;;12.70;1.00;;;;;;6318871;28;20755;-55
2022/06/21 01:02:49;;;;;;;6.13;5.43;;;12.70;1.00;;;;;;6326913;28;20229;-55
2022/06/21 01:05:54;;;;;;;5.43;5.10;;;12.70;1.00;;;;;;6325871;27;20321;-55
2022/06/21 01:09:01;;;;;;;5.00;4.70;;;12.70;1.00;;;;;;6330732;28;20285;-57
2022/06/21 01:12:11;;;;;;;7.13;4.83;;;12.60;1.00;;;;;;6328867;28;20243;-56
2022/06/21 01:15:19;;;;;;;7.53;5.00;;;12.60;1.00;;;;;;6311079;28;20649;-55
2022/06/21 01:18:23;;;;;;;4.93;4.73;;;12.60;1.00;;;;;;6309918;28;20247;-55
2022/06/21 01:21:29;;;;;;;5.23;4.73;;;12.60;1.00;;;;;;6311043;28;20258;-51
2022/06/21 01:24:41;;;;;;;5.67;5.17;;;12.50;1.00;;;;;;6309356;28;20242;-54
2022/06/21 01:27:46;;;;;;;5.40;5.13;;;12.60;1.00;;;;;;6311216;28;20742;-56
2022/06/21 01:30:52;;;;;;;6.00;4.83;;;12.50;1.00;;;;;;6311489;28;20267;-55
2022/06/21 01:33:55;;;;;;;5.63;5.13;;;12.40;1.00;;;;;;6326943;27;20318;-56
2022/06/21 01:37:05;;;;;;;6.60;5.30;;;12.40;1.00;;;;;;6318963;28;20243;-56
2022/06/21 01:40:12;;;;;;;5.77;5.33;;;12.40;1.00;;;;;;6334228;28;20627;-55
2022/06/21 01:43:21;;;;;;;8.27;5.60;;;12.30;1.00;;;;;;6328631;28;20602;-55
2022/06/21 01:46:28;;;;;;;6.00;5.43;;;12.40;1.00;;;;;;6324847;28;20417;-56
2022/06/21 01:49:35;;;;;;;12.87;5.83;;;12.40;1.00;;;;;;6333999;27;20250;-56
2022/06/21 01:52:45;;;;;;;5.53;5.00;;;12.40;1.00;;;;;;6344523;27;20631;-54
2022/06/21 01:55:53;;;;;;;6.97;4.90;;;12.40;1.00;;;;;;6309885;28;20236;-54
2022/06/21 01:59:05;;;;;;;5.83;5.40;;;12.50;1.00;;;;;;6307791;28;20331;-56
2022/06/21 02:02:13;;;;;;;5.87;5.43;;;12.50;1.00;;;;;;6310656;28;20712;-55
2022/06/21 02:05:21;;;;;;;6.00;5.47;;;12.40;1.00;;;;;;6329289;28;20219;-57
2022/06/21 02:08:37;;;;;;;6.03;5.50;;;12.40;1.00;;;;;;6326574;28;20357;-56
2022/06/21 02:11:46;;;;;;;5.63;5.33;;;12.40;1.00;;;;;;6315411;28;20237;-55
2022/06/21 02:14:55;;;;;;;6.00;5.40;;;12.40;1.00;;;;;;6309133;28;20331;-56
2022/06/21 02:17:59;;;;;;;5.77;5.40;;;12.40;1.00;;;;;;6308262;28;20378;-54
2022/06/21 02:21:09;;;;;;;10.57;5.63;;;12.40;1.00;;;;;;6323378;28;20318;-55
2022/06/21 02:24:15;;;;;;;6.47;5.20;;;12.40;1.00;;;;;;6319446;28;20307;-54
2022/06/21 02:27:23;;;;;;;5.80;5.40;;;12.40;1.00;;;;;;6331157;28;20244;-56
2022/06/21 02:30:29;;;;;;;5.37;4.87;;;12.40;1.00;;;;;;6309820;28;20463;-54
2022/06/21 02:33:34;;;;;;;5.60;5.27;;;12.40;1.00;;;;;;6324780;27;20250;-56
2022/06/21 02:36:44;;;;;;;5.87;5.30;;;12.30;1.00;;;;;;6321561;28;20509;-55
2022/06/21 02:39:48;;;;;;;6.57;5.13;;;12.30;1.00;;;;;;6329003;28;20323;-56
2022/06/21 02:42:55;;;;;;;5.47;4.97;;;12.30;1.00;;;;;;6330141;28;20232;-56
2022/06/21 02:46:04;;;;;;;6.83;5.37;;;12.30;1.00;;;;;;6298666;28;20247;-54
2022/06/21 02:49:14;;;;;;;5.77;5.23;;;12.30;1.00;;;;;;6307880;28;20292;-54
2022/06/21 02:52:22;;;;;;;5.80;5.37;;;12.30;1.00;;;;;;6319647;28;20228;-56
2022/06/21 02:55:37;;;;;;;6.63;6.03;;;12.30;1.00;;;;;;6328462;27;20611;-55
2022/06/21 02:58:43;;;;;;;6.73;6.17;;;12.30;1.00;;;;;;6331395;28;20232;-56
2022/06/21 03:01:52;;;;;;;6.43;5.87;;;12.20;1.00;;;;;;6323889;28;20697;-62
2022/06/21 03:04:57;;;;;;;7.27;5.50;;;12.30;1.00;;;;;;6333965;28;20235;-55
2022/06/21 03:08:04;;;;;;;5.87;5.30;;;12.20;1.00;;;;;;6323584;28;20759;-57
2022/06/21 03:11:07;;;;;;;5.70;5.20;;;12.20;1.00;;;;;;6332999;28;20315;-55
2022/06/21 03:14:16;;;;;;;6.10;5.50;;;12.20;1.00;;;;;;6334290;28;20333;-55
2022/06/21 03:17:24;;;;;;;7.37;5.80;;;12.20;1.00;;;;;;6317138;28;20548;-56
2022/06/21 03:20:28;;;;;;;6.50;5.87;;;12.10;1.00;;;;;;6308235;28;20639;-57
2022/06/21 03:23:31;;;;;;;6.47;5.87;;;12.10;1.00;;;;;;6307701;28;20320;-55
2022/06/21 03:26:38;;;;;;;7.33;6.57;;;12.20;1.00;;;;;;6307066;28;20237;-55
2022/06/21 03:29:41;;;;;;;7.47;6.13;;;12.10;1.00;;;;;;6308248;28;20705;-56
2022/06/21 03:32:45;;;;;;;9.23;6.33;;;12.10;1.00;;;;;;6308122;27;20223;-56
2022/06/21 03:35:48;;;;;;;6.83;5.37;;;12.10;1.00;;;;;;6324285;28;20281;-55
2022/06/21 03:38:55;;;;;;;8.40;6.40;;;12.20;1.00;;;;;;6324570;28;20730;-55
2022/06/21 03:41:57;;;;;;;6.43;6.03;;;12.10;1.00;;;;;;6329943;28;20612;-57
2022/06/21 03:45:06;;;;;;;7.30;6.57;;;12.20;1.00;;;;;;6329096;28;20524;-55
2022/06/21 03:48:17;;;;;;;9.10;6.30;;;12.20;1.00;;;;;;6331831;28;20819;-56
2022/06/21 03:51:26;;;;;;;7.13;6.43;;;12.20;1.00;;;;;;6332626;28;20236;-55
2022/06/21 03:54:34;;;;;;;6.87;6.33;;;12.30;1.00;;;;;;6326688;27;20358;-55
2022/06/21 03:57:42;;;;;;;9.33;6.17;;;12.30;1.00;;;;;;6335499;27;20322;-56
2022/06/21 04:00:51;;;;;;;6.93;6.33;;;12.30;1.00;;;;;;6332007;28;20664;-56
2022/06/21 04:04:02;;;;;;;10.40;5.73;;;12.40;1.00;;;;;;6328547;28;20243;-56
2022/06/21 04:07:12;;;;;;;6.70;6.10;;;12.50;1.00;;;;;;6325397;28;20243;-55
2022/06/21 04:10:20;;;;;;;6.10;5.60;;;12.50;1.00;;;;;;6327717;27;20270;-55
2022/06/21 04:13:31;;;;;;;9.53;6.57;;;12.50;1.00;;;;;;6325405;27;20321;-57
2022/06/21 04:16:39;;;;;;;8.43;5.83;;;12.50;1.00;;;;;;6328110;28;20608;-57
2022/06/21 04:19:50;;;;;;;7.43;6.10;;;12.60;1.00;;;;;;6331254;28;20331;-54
2022/06/21 04:22:57;;;;;;;11.53;5.90;;;12.60;1.00;;;;;;6322967;28;20288;-56
2022/06/21 04:26:06;;;;;;;5.67;5.27;;;12.70;1.00;;;;;;6333332;27;20728;-56
2022/06/21 04:29:15;;;;;;;6.17;5.73;;;12.80;1.00;;;;;;6329040;28;20779;-55
2022/06/21 04:32:23;;;;;;;6.67;5.60;;;12.90;1.00;;;;;;6331128;28;20543;-56
2022/06/21 04:35:33;;;;;;;6.37;5.73;;;13.10;1.00;;;;;;6329931;28;20229;-56
2022/06/21 04:38:41;;;;;;;6.60;6.03;;;13.20;1.00;;;;;;6324701;28;20236;-56
2022/06/21 04:41:49;;;;;;;6.60;5.57;;;13.20;1.00;;;;;;6322015;28;20381;-56
2022/06/21 04:44:59;;;;;;;10.03;5.80;;;13.30;1.00;;;;;;6327471;28;20318;-56
2022/06/21 04:48:13;;;;;;;7.60;5.77;;;13.30;1.00;;;;;;6325534;28;20236;-56
2022/06/21 04:51:23;;;;;;;8.40;5.77;;;13.30;1.00;;;;;;6326144;28;20250;-56
2022/06/21 04:54:28;;;;;;;6.43;5.93;;;13.40;1.00;;;;;;6329025;28;20890;-56
2022/06/21 04:57:32;;;;;;;11.60;6.17;;;13.50;1.00;;;;;;6305543;28;20235;-55
2022/06/21 05:00:35;;;;;;;5.87;5.47;;;13.60;1.00;;;;;;6323743;28;20244;-55
2022/06/21 05:03:42;;;;;;;6.77;5.90;;;13.60;1.00;;;;;;6321818;28;20315;-56
2022/06/21 05:06:48;;;;;;;7.17;6.10;;;13.70;1.00;;;;;;6317633;28;20266;-56
2022/06/21 05:09:54;;;;;;;9.70;6.33;;;13.70;1.00;;;;;;6289430;28;20324;-54
2022/06/21 05:13:00;;;;;;;7.87;6.13;;;13.80;1.00;;;;;;6318462;28;20309;-55
2022/06/21 05:16:06;;;;;;;8.60;6.30;;;13.80;1.00;;;;;;6331421;28;20851;-54
2022/06/21 05:19:15;;;;;;;8.80;5.83;;;13.80;1.00;;;;;;6325467;28;20232;-55
2022/06/21 05:22:27;;;;;;;9.87;5.70;;;13.80;1.00;;;;;;6326441;28;20294;-55
2022/06/21 05:25:34;;;;;;;6.77;5.70;;;13.90;1.00;;;;;;6330055;28;20688;-56
2022/06/21 05:28:42;;;;;;;5.83;5.30;;;13.90;1.00;;;;;;6329048;28;20370;-55
2022/06/21 05:31:49;;;;;;;5.40;5.00;;;14.10;1.00;;;;;;6331495;28;20912;-56
2022/06/21 05:34:56;;;;;;;5.87;5.23;;;14.30;1.00;;;;;;6332118;28;20365;-56
2022/06/21 05:38:04;;;;;;;7.30;5.23;;;14.50;1.00;;;;;;6330235;28;20236;-54
2022/06/21 05:41:29;;;;;;;7.87;5.40;;;14.70;1.00;;;;;;6330557;28;20646;-55
2022/06/21 05:44:36;;;;;;;9.27;5.00;;;14.90;1.00;;;;;;6337075;27;20232;-55
2022/06/21 05:47:43;;;;;;;10.47;4.40;;;15.10;1.00;;;;;;6335665;27;20251;-55
2022/06/21 05:50:47;;;;;;;7.33;4.63;;;15.40;1.00;;;;;;6327993;28;20239;-57
2022/06/21 05:53:55;;;;;;;5.93;4.80;;;15.80;1.00;;;;;;6333918;28;20259;-57
2022/06/21 05:57:02;;;;;;;7.20;3.97;;;16.00;1.00;;;;;;6331430;28;20252;-56
2022/06/21 06:00:06;;;;;;;9.13;3.83;;;16.40;1.00;;;;;;6328761;28;20322;-56
2022/06/21 06:03:15;;;;;;;3.77;3.43;;;16.60;1.00;;;;;;6336042;27;20606;-55
2022/06/21 06:06:20;;;;;;;4.83;3.60;;;16.80;1.00;;;;;;6335590;28;20236;-55
2022/06/21 06:09:28;;;;;;;7.17;4.00;;;16.90;1.00;;;;;;6329126;28;20657;-56
2022/06/21 06:12:34;;;;;;;8.47;3.50;;;17.30;1.00;;;;;;6333084;27;20388;-57
2022/06/21 06:15:41;;;;;;;5.47;4.03;;;17.40;1.00;;;;;;6336404;27;20235;-56
2022/06/21 06:18:50;;;;;;;7.57;4.23;;;17.00;1.00;;;;;;6328717;28;20243;-56
2022/06/21 06:22:08;;;;;;;4.27;3.87;;;17.10;1.00;;;;;;6327524;28;20427;-57
2022/06/21 06:25:19;;;;;;;4.37;3.63;;;17.30;1.00;;;;;;6331166;28;20319;-56
2022/06/21 06:28:27;;;;;;;4.30;3.23;;;17.40;1.00;;;;;;6341887;27;20601;-57
2022/06/21 06:31:36;;;;;;;4.23;2.93;;;17.60;1.00;;;;;;6334581;28;20701;-56
2022/06/21 06:34:44;;;;;;;3.80;3.27;;;17.80;1.00;;;;;;6324368;28;20708;-55
2022/06/21 06:37:48;;;;;;;4.10;3.40;;;18.00;1.00;;;;;;6334371;27;20369;-57
2022/06/21 06:41:01;;;;;;;3.77;3.47;;;18.00;1.00;;;;;;6331574;28;20259;-56
2022/06/21 06:44:07;;;;;;;7.77;3.50;;;18.10;1.00;;;;;;6333750;28;20236;-55
2022/06/21 06:47:14;;;;;;;3.37;2.77;;;18.50;1.00;;;;;;6331288;27;20342;-56
2022/06/21 06:50:22;;;;;;;5.17;3.20;;;18.80;1.00;;;;;;6331462;28;20224;-56
2022/06/21 06:53:30;;;;;;;5.73;2.93;;;18.70;1.00;;;;;;6322547;28;20320;-56
2022/06/21 06:56:45;;;;;;;4.37;3.33;;;18.80;1.00;;;;;;6331407;28;20288;-56
2022/06/21 06:59:48;;;;;;;6.17;3.30;;;19.00;1.00;;;;;;6330854;28;20225;-56
2022/06/21 07:02:54;;;;;;;3.40;3.10;;;19.20;1.00;;;;;;6337872;27;20235;-59
2022/06/21 07:06:03;;;;;;;4.97;2.63;;;19.40;1.00;;;;;;6330331;28;20336;-56
2022/06/21 07:09:11;;;;;;;4.83;2.83;;;19.50;1.00;;;;;;6325200;28;20318;-56
2022/06/21 07:12:18;;;;;;;6.87;3.63;;;19.70;1.00;;;;;;6332107;28;20228;-56
2022/06/21 07:15:28;;;;;;;5.17;3.20;;;19.80;1.00;;;;;;6330897;28;20263;-55
2022/06/21 07:18:37;;;;;;;4.47;2.80;;;19.80;1.00;;;;;;6331594;28;20534;-56
2022/06/21 07:21:41;;;;;;;6.50;2.80;;;19.40;1.00;;;;;;6296778;28;20257;-56
2022/06/21 07:24:51;;;;;;;4.57;2.70;;;19.20;1.00;;;;;;6328877;28;20739;-57
2022/06/21 07:27:58;;;;;;;5.33;2.83;;;19.10;1.00;;;;;;6330187;28;20259;-55
2022/06/21 07:31:08;;;;;;;2.97;2.53;;;19.20;1.00;;;;;;6326179;28;20224;-57
2022/06/21 07:34:16;;;;;;;4.27;2.60;;;19.20;1.00;;;;;;6331688;28;20259;-56
2022/06/21 07:37:25;;;;;;;4.20;2.93;;;19.30;1.00;;;;;;6330730;28;20244;-57
2022/06/21 07:40:34;;;;;;;3.67;2.70;;;19.20;1.00;;;;;;6330420;28;20247;-58
2022/06/21 07:43:43;;;;;;;3.10;2.90;;;19.30;1.00;;;;;;6331131;28;20323;-58
2022/06/21 07:46:51;;;;;;;5.30;2.63;;;19.20;1.00;;;;;;6332291;28;20369;-56
2022/06/21 07:49:59;;;;;;;4.93;2.87;;;19.30;1.00;;;;;;6324525;28;20236;-56
2022/06/21 07:53:08;;;;;;;4.37;2.83;;;19.50;1.00;;;;;;6325985;28;20727;-55
2022/06/21 07:56:16;;;;;;;4.27;2.70;;;19.50;1.00;;;;;;6332638;27;20268;-55
2022/06/21 07:59:26;;;;;;;6.93;2.70;;;19.40;1.00;;;;;;6330130;28;20238;-57
2022/06/21 08:09:31;;;;;;;5.73;2.17;;;19.50;1.00;;;;;;6288392;28;20239;-56
2022/06/21 08:12:34;;;;;;;2.27;2.07;;;19.30;1.00;;;;;;6330464;28;20325;-56
2022/06/21 08:15:43;;;;;;;4.23;2.17;;;19.30;1.00;;;;;;6332871;28;20381;-56
2022/06/21 08:18:51;;;;;;;3.43;2.40;;;19.30;1.00;;;;;;6327472;28;20315;-55
2022/06/21 08:21:59;;;;;;;3.77;2.53;;;19.20;1.00;;;;;;6332565;27;20311;-57
2022/06/21 08:25:10;;;;;;;2.53;2.33;;;19.30;1.00;;;;;;6328622;27;20234;-56
2022/06/21 08:28:18;;;;;;;2.97;2.07;;;19.30;1.00;;;;;;6342024;27;20318;-56
2022/06/21 08:31:28;;;;;;;2.27;2.17;;;19.20;1.00;;;;;;6344595;27;20757;-56
2022/06/21 08:34:36;;;;;;;2.57;2.23;;;19.20;1.00;;;;;;6330350;28;20373;-55
2022/06/21 08:37:46;;;;;;;5.20;2.50;;;19.30;1.00;;;;;;6328585;28;20239;-56
2022/06/21 08:49:05;;;;;;;4.10;2.50;;;19.80;1.00;;;;;;6310556;28;20232;-58
2022/06/21 08:52:24;;;;;;;3.67;2.23;;;20.20;1.00;;;;;;6327329;28;20511;-57
2022/06/21 08:55:42;;;;;;;3.60;2.20;;;20.50;1.00;;;;;;6328147;28;20231;-57
2022/06/21 08:59:03;;;;;;;4.23;2.07;;;20.60;1.00;;;;;;6328652;28;20411;-57
2022/06/21 09:02:15;;;;;;;2.20;2.10;;;20.80;1.00;;;;;;6324722;28;20309;-58
2022/06/21 09:05:42;;;;;;;2.73;2.53;;;21.00;1.00;;;;;;6322415;28;20387;-57
2022/06/21 09:09:04;;;;;;;5.07;2.17;;;21.10;1.00;;;;;;6331630;27;20240;-56
2022/06/21 09:12:19;;;;;;;5.90;2.20;;;21.30;1.00;;;;;;6324331;28;20304;-56
2022/06/21 09:15:34;;;;;;;2.40;2.20;;;21.50;1.00;;;;;;6329658;28;20706;-56
2022/06/21 09:18:50;;;;;;;4.03;2.37;;;21.50;1.00;;;;;;6330277;28;20251;-55
2022/06/21 09:22:03;;;;;;;4.20;2.80;;;21.50;1.00;;;;;;6325508;28;20296;-55
2022/06/21 09:25:16;;;;;;;3.00;2.00;;;21.40;1.00;;;;;;6334163;27;20228;-54
2022/06/21 09:28:31;;;;;;;2.40;2.20;;;21.20;1.00;;;;;;6333205;27;20240;-57
2022/06/21 09:31:41;;;;;;;2.73;2.53;;;21.40;1.00;;;;;;6326084;28;20254;-57
2022/06/21 09:35:00;;;;;;;2.50;2.30;;;21.50;1.00;;;;;;6334828;27;20228;-55
2022/06/21 09:38:18;;;;;;;2.77;2.43;;;21.50;1.00;;;;;;6322572;28;20237;-56
2022/06/21 09:41:30;;;;;;;6.30;2.33;;;21.50;1.00;;;;;;6338921;27;20606;-55
2022/06/21 09:44:42;;;;;;;2.23;1.77;;;21.60;1.00;;;;;;6335525;27;20310;-55
2022/06/21 09:47:54;;;;;;;4.67;2.20;;;21.80;1.00;;;;;;6335031;27;20232;-55
2022/06/21 09:51:03;;;;;;;2.80;2.10;;;21.80;1.00;;;;;;6325235;27;20228;-58
2022/06/21 09:54:22;;;;;;;3.70;2.60;;;21.80;1.00;;;;;;6326876;28;20239;-56
2022/06/21 09:57:33;;;;;;;2.53;2.40;;;21.80;1.00;;;;;;6329646;28;20236;-55
2022/06/21 10:00:42;;;;;;;2.80;2.60;;;21.80;1.00;;;;;;6329180;28;20256;-54
2022/06/21 10:03:51;;;;;;;4.67;2.30;;;21.80;1.00;;;;;;6337810;27;20267;-55
2022/06/21 10:07:06;;;;;;;3.87;2.43;;;21.90;1.00;;;;;;6330564;28;20263;-56
2022/06/21 10:10:26;;;;;;;3.50;2.47;;;21.80;1.00;;;;;;6326136;27;20223;-57
2022/06/21 10:13:50;;;;;;;3.23;2.23;;;21.80;1.00;;;;;;6333800;28;20488;-55
2022/06/21 10:17:27;;;;;;;1.90;1.80;;;21.90;1.00;;;;;;6324344;28;20361;-56
2022/06/21 10:20:43;;;;;;;2.67;2.20;;;21.80;1.00;;;;;;6335270;27;20239;-57
2022/06/21 10:24:11;;;;;;;2.53;2.33;;;21.90;1.00;;;;;;6328331;28;20369;-56
2022/06/21 10:27:30;;;;;;;2.80;2.50;;;22.10;1.00;;;;;;6320023;27;20247;-57
2022/06/21 10:30:52;;;;;;;2.60;2.40;;;22.20;1.00;;;;;;6336996;27;20384;-56
2022/06/21 10:34:27;;;;;;;2.50;2.33;;;22.40;1.00;;;;;;6328823;27;20476;-58
2022/06/21 10:37:46;;;;;;;2.50;2.27;;;22.40;1.00;;;;;;6327458;27;20320;-57
2022/06/21 10:41:01;;;;;;;3.17;2.37;;;22.50;1.00;;;;;;6332918;28;20394;-57
2022/06/21 10:44:24;;;;;;;5.40;2.60;;;22.60;1.00;;;;;;6333551;28;20751;-56
2022/06/21 10:47:36;;;;;;;3.73;2.77;;;22.70;1.00;;;;;;6326114;28;20232;-57
2022/06/21 10:50:49;;;;;;;3.70;2.73;;;22.80;1.00;;;;;;6331999;28;20280;-58
2022/06/21 10:54:06;;;;;;;2.37;2.10;;;22.70;1.00;;;;;;6331332;28;20236;-57
2022/06/21 10:57:18;;;;;;;3.07;1.90;;;22.70;1.00;;;;;;6301911;28;20706;-54
2022/06/21 11:04:35;;;;;;;1.93;1.93;;;22.80;1.00;;;;;;6329961;27;20267;-56
2022/06/21 11:07:48;;;;;;;2.10;2.00;;;22.90;1.00;;;;;;6312535;27;20236;-55
2022/06/21 11:10:56;;;;;;;2.00;1.90;;;23.00;1.00;;;;;;6338696;27;20272;-57
2022/06/21 11:14:07;;;;;;;5.07;2.10;;;22.90;1.00;;;;;;6321348;27;20707;-55
2022/06/21 11:17:21;;;;;;;4.13;2.33;;;22.90;1.00;;;;;;6338077;27;20240;-56
2022/06/21 11:20:37;;;;;;;2.50;2.30;;;23.00;1.00;;;;;;6331951;28;20248;-56
2022/06/21 11:23:49;;;;;;;1.70;1.60;;;22.90;1.00;;;;;;6329809;28;20365;-56
2022/06/21 11:27:02;;;;;;;2.30;1.60;;;22.90;1.00;;;;;;6343567;27;20231;-55
2022/06/21 11:30:09;;;;;;;2.40;2.20;;;23.00;1.00;;;;;;6324440;28;20240;-55
2022/06/21 11:33:24;;;;;;;2.30;2.00;;;23.10;1.00;;;;;;6331380;27;20490;-55
2022/06/21 11:36:34;;;;;;;2.37;2.10;;;23.10;1.00;;;;;;6328774;28;20236;-55
2022/06/21 11:39:40;;;;;;;2.47;1.83;;;23.10;1.00;;;;;;6338032;27;20236;-56
2022/06/21 11:42:50;;;;;;;2.10;2.00;;;23.30;1.00;;;;;;6324750;27;20228;-55
2022/06/21 11:45:58;;;;;;;2.23;2.10;;;23.30;1.00;;;;;;6330592;28;20389;-57
2022/06/21 11:49:27;;;;;;;2.13;1.93;;;23.20;1.00;;;;;;6330061;27;20624;-57
2022/06/21 11:53:04;;;;;;;2.57;2.43;;;23.30;1.00;;;;;;6328073;27;20495;-57
2022/06/21 11:56:12;;;;;;;2.03;1.90;;;23.30;1.00;;;;;;6330794;27;20723;-56
2022/06/21 11:59:25;;;;;;;2.37;2.20;;;23.50;1.00;;;;;;6328350;28;20262;-56
2022/06/21 12:02:37;;;;;;;2.30;2.10;;;23.50;1.00;;;;;;6333351;27;20626;-56
2022/06/21 12:05:46;;;;;;;2.33;2.13;;;23.50;1.00;;;;;;6327646;27;20238;-57
2022/06/21 12:08:55;;;;;;;5.87;2.43;;;23.70;1.00;;;;;;6331153;27;20311;-56
2022/06/21 12:12:21;;;;;;;3.00;2.60;;;23.80;1.00;;;;;;6331916;28;20281;-57
2022/06/21 12:15:40;;;;;;;2.47;2.27;;;24.00;1.00;;;;;;6330602;27;20219;-57
2022/06/21 12:18:47;;;;;;;2.53;2.33;;;24.10;1.00;;;;;;6331621;28;20236;-57
2022/06/21 12:21:57;;;;;;;2.80;2.00;;;24.00;1.00;;;;;;6342874;27;20277;-58
2022/06/21 12:25:00;;;;;;;2.10;2.10;;;24.00;1.00;;;;;;6321841;27;20285;-58
2022/06/21 12:28:12;;;;;;;2.77;2.57;;;23.90;1.00;;;;;;6326643;28;20511;-57
2022/06/21 12:31:41;;;;;;;2.10;2.00;;;24.00;1.00;;;;;;6323317;27;22138;-57
2022/06/21 12:34:51;;;;;;;2.83;2.03;;;24.00;1.00;;;;;;6338075;28;20365;-56
2022/06/21 12:37:56;;;;;;;1.97;1.80;;;24.00;1.00;;;;;;6342090;27;20870;-58
2022/06/21 12:41:07;;;;;;;5.10;2.20;;;24.20;1.00;;;;;;6321932;28;20776;-57
2022/06/21 12:44:21;;;;;;;2.00;1.80;;;24.30;1.00;;;;;;6316905;28;20393;-56
2022/06/21 12:47:37;;;;;;;2.20;2.10;;;24.30;1.00;;;;;;6336241;28;20228;-57
2022/06/21 12:50:51;;;;;;;3.03;2.30;;;24.40;1.00;;;;;;6327758;28;20372;-56
2022/06/21 12:54:21;;;;;;;2.33;1.93;;;24.30;1.00;;;;;;6320332;28;20236;-57
2022/06/21 12:57:42;;;;;;;2.63;2.33;;;24.50;1.00;;;;;;6337597;28;20715;-56
2022/06/21 13:00:50;;;;;;;2.20;2.10;;;24.60;1.00;;;;;;6320849;28;20750;-56
2022/06/21 13:04:18;;;;;;;2.23;2.00;;;24.60;1.00;;;;;;6335207;28;20581;-56
2022/06/21 13:07:44;;;;;;;2.00;1.90;;;24.60;1.00;;;;;;6329231;28;20306;-56
2022/06/21 13:10:55;;;;;;;1.90;1.90;;;24.70;1.00;;;;;;6326127;28;20488;-57
2022/06/21 13:14:25;;;;;;;2.17;2.07;;;24.80;1.00;;;;;;6327043;28;20735;-57
2022/06/21 13:18:04;;;;;;;2.20;1.90;;;24.70;1.00;;;;;;6330556;28;20228;-57
2022/06/21 13:21:15;;;;;;;2.00;1.90;;;24.80;1.00;;;;;;6324607;28;20315;-56
2022/06/21 13:24:34;;;;;;;1.83;1.73;;;24.80;1.00;;;;;;6324569;28;20220;-56
2022/06/21 13:27:49;;;;;;;2.13;1.93;;;25.00;1.00;;;;;;6326772;28;20324;-56
2022/06/21 13:30:57;;;;;;;2.40;2.30;;;24.90;1.00;;;;;;6335483;28;20610;-55
2022/06/21 13:34:05;;;;;;;3.20;2.10;;;25.10;1.00;;;;;;6337022;28;20342;-55
2022/06/21 13:37:14;;;;;;;2.53;2.33;;;25.20;1.00;;;;;;6326879;28;20251;-58
2022/06/21 13:40:22;;;;;;;2.10;2.00;;;25.10;1.00;;;;;;6326772;28;20324;-56
2022/06/21 13:43:35;;;;;;;2.40;2.17;;;25.10;1.00;;;;;;6333111;28;20237;-58
2022/06/21 13:46:47;;;;;;;2.40;1.90;;;24.90;1.00;;;;;;6328507;28;20830;-55
2022/06/21 13:49:57;;;;;;;1.70;1.70;;;24.90;1.00;;;;;;6329923;28;20251;-56
2022/06/21 13:53:06;;;;;;;2.23;2.13;;;24.90;1.00;;;;;;6319567;28;20315;-57
2022/06/21 13:56:20;;;;;;;2.23;2.13;;;25.20;1.00;;;;;;6333231;27;20368;-57
2022/06/21 13:59:29;;;;;;;2.63;1.63;;;25.50;1.00;;;;;;6338430;27;20361;-55
2022/06/21 14:02:41;;;;;;;2.10;1.90;;;25.30;1.00;;;;;;6338118;27;20940;-57
2022/06/21 14:05:51;;;;;;;2.37;2.20;;;25.10;1.00;;;;;;6337278;27;20263;-57
2022/06/21 14:08:59;;;;;;;2.47;2.37;;;25.00;1.00;;;;;;6323501;28;20534;-63
2022/06/21 14:12:10;;;;;;;1.87;1.87;;;24.90;1.00;;;;;;6335409;27;20362;-57
2022/06/21 14:15:27;;;;;;;4.00;2.33;;;24.80;1.00;;;;;;6332653;28;20319;-58
2022/06/21 14:18:36;;;;;;;2.07;2.07;;;24.80;1.00;;;;;;6326840;27;20248;-56
2022/06/21 14:21:44;;;;;;;2.17;2.07;;;24.90;1.00;;;;;;6345537;27;20293;-57
2022/06/21 14:24:54;;;;;;;2.47;2.20;;;25.00;1.00;;;;;;6337433;27;20239;-56
2022/06/21 14:28:06;;;;;;;2.10;1.90;;;25.10;1.00;;;;;;6325572;28;20716;-58
2022/06/21 14:31:20;;;;;;;1.77;1.77;;;25.10;1.00;;;;;;6333933;27;20616;-56
2022/06/21 14:34:28;;;;;;;3.13;2.10;;;25.20;1.00;;;;;;6331660;27;20232;-57
2022/06/21 14:37:40;;;;;;;2.97;2.10;;;25.30;1.00;;;;;;6334212;27;20312;-57
2022/06/21 14:41:05;;;;;;;4.20;2.00;;;25.10;1.00;;;;;;6332488;27;20710;-56
2022/06/21 14:44:16;;;;;;;2.30;2.07;;;25.00;1.00;;;;;;6333636;28;20396;-56
2022/06/21 14:47:27;;;;;;;2.20;2.00;;;25.00;1.00;;;;;;6329934;28;20555;-56
2022/06/21 14:50:36;;;;;;;2.30;2.07;;;25.10;1.00;;;;;;6328311;28;20232;-56
2022/06/21 14:53:58;;;;;;;2.10;2.00;;;25.10;1.00;;;;;;6327862;28;20638;-56
2022/06/21 14:57:19;;;;;;;3.13;2.40;;;25.30;1.00;;;;;;6318986;28;20789;-56
2022/06/21 15:00:36;;;;;;;2.00;1.90;;;25.20;1.00;;;;;;6331655;28;20470;-56
2022/06/21 15:04:08;;;;;;;2.03;1.80;;;25.30;1.00;;;;;;6329173;27;20267;-55
2022/06/21 15:07:24;;;;;;;2.00;1.90;;;25.30;1.00;;;;;;6327905;28;20694;-55
2022/06/21 15:10:30;;;;;;;3.77;2.00;;;25.40;1.00;;;;;;6327827;28;20239;-56
2022/06/21 15:13:43;;;;;;;3.60;1.87;;;25.40;1.00;;;;;;6338135;27;20737;-57
2022/06/21 15:16:54;;;;;;;2.40;2.20;;;25.50;1.00;;;;;;6327777;27;20319;-57
2022/06/21 15:20:07;;;;;;;2.37;2.17;;;25.40;1.00;;;;;;6339783;27;20238;-57
2022/06/21 15:23:16;;;;;;;2.77;1.97;;;25.40;1.00;;;;;;6323047;28;20826;-56
2022/06/21 15:26:26;;;;;;;2.20;2.00;;;25.40;1.00;;;;;;6337211;27;20369;-55
2022/06/21 15:29:37;;;;;;;2.00;1.90;;;25.40;1.00;;;;;;6327161;28;20236;-56
2022/06/21 15:32:46;;;;;;;2.33;2.17;;;25.40;1.00;;;;;;6331658;27;20232;-56
2022/06/21 15:36:04;;;;;;;1.90;1.80;;;25.40;1.00;;;;;;6330376;28;20236;-55
2022/06/21 15:39:15;;;;;;;8.07;2.70;;;25.40;1.00;;;;;;6318522;28;20763;-55
2022/06/21 15:42:28;;;;;;;2.13;2.03;;;25.30;1.00;;;;;;6333869;27;20292;-55
2022/06/21 15:45:36;;;;;;;2.20;2.10;;;25.30;1.00;;;;;;6333621;27;20296;-56
2022/06/21 15:52:17;;;;;;;1.67;1.63;;;25.20;1.00;;;;;;6326115;27;20264;-57
2022/06/21 15:55:25;;;;;;;1.60;1.60;;;25.20;1.00;;;;;;6330085;28;20613;-55
2022/06/21 15:58:35;;;;;;;2.10;2.00;;;25.20;1.00;;;;;;6329342;28;20397;-55
2022/06/21 16:01:55;;;;;;;2.43;2.20;;;25.10;1.00;;;;;;6322042;28;20723;-56
2022/06/21 16:05:12;;;;;;;2.10;2.00;;;25.20;1.00;;;;;;6338458;27;20232;-56
2022/06/21 16:08:20;;;;;;;1.87;1.77;;;25.20;1.00;;;;;;6334147;27;20490;-56
2022/06/21 16:11:27;;;;;;;1.77;1.70;;;25.20;1.00;;;;;;6332837;27;20357;-55
2022/06/21 16:14:35;;;;;;;2.40;2.23;;;25.20;1.00;;;;;;6327589;27;20402;-55
2022/06/21 16:17:44;;;;;;;2.77;2.03;;;25.20;1.00;;;;;;6331370;27;20331;-56
2022/06/21 16:20:49;;;;;;;1.87;1.87;;;25.20;1.00;;;;;;6329910;27;20282;-56
2022/06/21 16:23:59;;;;;;;2.33;2.00;;;25.30;1.00;;;;;;6332622;27;20232;-56
2022/06/21 16:27:08;;;;;;;2.33;2.20;;;25.20;1.00;;;;;;6328862;27;20329;-56
2022/06/21 16:30:16;;;;;;;1.83;1.73;;;24.90;1.00;;;;;;6338768;27;20666;-55
2022/06/21 16:33:27;;;;;;;2.53;1.93;;;24.60;1.00;;;;;;6328612;27;20227;-56
2022/06/21 16:36:37;;;;;;;2.73;1.93;;;24.60;1.00;;;;;;6333340;28;20235;-56
2022/06/21 16:39:48;;;;;;;3.40;2.20;;;24.50;1.00;;;;;;6321581;28;20357;-54
2022/06/21 16:42:59;;;;;;;2.00;1.90;;;24.50;1.00;;;;;;6336423;28;20242;-56
2022/06/21 16:46:10;;;;;;;1.83;1.83;;;24.40;1.00;;;;;;6323998;28;20313;-56
2022/06/21 16:49:21;;;;;;;1.87;1.83;;;24.30;1.00;;;;;;6320887;28;20241;-56
2022/06/21 16:52:40;;;;;;;2.87;1.90;;;24.30;1.00;;;;;;6332850;28;20360;-56
2022/06/21 16:55:57;;;;;;;3.23;1.93;;;24.30;1.00;;;;;;6339166;28;20311;-55
2022/06/21 16:59:17;;;;;;;1.80;1.70;;;24.20;1.00;;;;;;6320086;28;20316;-57
2022/06/21 17:02:25;;;;;;;1.90;1.90;;;24.00;1.00;;;;;;6328801;28;20508;-55
2022/06/21 17:05:45;;;;;;;1.93;1.70;;;24.00;1.00;;;;;;6303031;28;20270;-55
2022/06/21 17:08:48;;;;;;;2.73;2.33;;;23.90;1.00;;;;;;6323786;28;20914;-55